sensor_id;sensor_type;location;lat;lon;timestamp;P1;durP1;ratioP1;P2;durP2;ratioP2
8088;SDS011;57635;49.194;12.104;2022-08-01T00:01:56;3.60;;;3.40;;
8088;SDS011;57635;49.194;12.104;2022-08-01T00:04:24;3.40;;;3.20;;
8088;SDS011;57635;49.194;12.104;2022-08-01T00:07:00;3.40;;;3.23;;
8088;SDS011;57635;49.194;12.104;2022-08-01T00:09:30;3.60;;;3.40;;
8088;SDS011;57635;49.194;12.104;2022-08-01T00:12:04;3.87;;;3.67;;
8088;SDS011;57635;49.194;12.104;2022-08-01T00:14:38;3.43;;;3.13;;
8088;SDS011;57635;49.194;12.104;2022-08-01T00:17:09;3.60;;;3.33;;
8088;SDS011;57635;49.194;12.104;2022-08-01T00:19:40;3.50;;;3.30;;
8088;SDS011;57635;49.194;12.104;2022-08-01T00:22:14;3.40;;;3.13;;
8088;SDS011;57635;49.194;12.104;2022-08-01T00:24:42;3.70;;;3.50;;
8088;SDS011;57635;49.194;12.104;2022-08-01T00:27:13;4.07;;;3.87;;
8088;SDS011;57635;49.194;12.104;2022-08-01T00:29:45;3.70;;;3.40;;
8088;SDS011;57635;49.194;12.104;2022-08-01T00:32:36;3.50;;;3.30;;
8088;SDS011;57635;49.194;12.104;2022-08-01T00:35:04;3.70;;;3.40;;
8088;SDS011;57635;49.194;12.104;2022-08-01T00:37:35;3.37;;;3.27;;
8088;SDS011;57635;49.194;12.104;2022-08-01T00:40:06;4.10;;;3.80;;
8088;SDS011;57635;49.194;12.104;2022-08-01T00:42:34;4.57;;;4.17;;
8088;SDS011;57635;49.194;12.104;2022-08-01T00:45:10;3.90;;;3.63;;
8088;SDS011;57635;49.194;12.104;2022-08-01T00:47:39;3.87;;;3.50;;
8088;SDS011;57635;49.194;12.104;2022-08-01T00:50:07;3.50;;;3.27;;
8088;SDS011;57635;49.194;12.104;2022-08-01T00:52:47;3.70;;;3.40;;
8088;SDS011;57635;49.194;12.104;2022-08-01T00:55:17;3.57;;;3.37;;
8088;SDS011;57635;49.194;12.104;2022-08-01T00:57:47;3.63;;;3.37;;
8088;SDS011;57635;49.194;12.104;2022-08-01T01:00:33;3.67;;;3.47;;
8088;SDS011;57635;49.194;12.104;2022-08-01T01:03:19;3.57;;;3.43;;
8088;SDS011;57635;49.194;12.104;2022-08-01T01:09:39;3.80;;;3.60;;
8088;SDS011;57635;49.194;12.104;2022-08-01T01:12:17;3.30;;;3.20;;
8088;SDS011;57635;49.194;12.104;2022-08-01T01:14:51;3.57;;;3.30;;
8088;SDS011;57635;49.194;12.104;2022-08-01T01:17:31;3.40;;;3.10;;
8088;SDS011;57635;49.194;12.104;2022-08-01T01:20:16;3.27;;;3.10;;
8088;SDS011;57635;49.194;12.104;2022-08-01T01:25:51;3.60;;;3.40;;
8088;SDS011;57635;49.194;12.104;2022-08-01T01:31:20;3.87;;;3.57;;
8088;SDS011;57635;49.194;12.104;2022-08-01T01:33:50;3.47;;;3.27;;
8088;SDS011;57635;49.194;12.104;2022-08-01T01:36:20;4.30;;;3.90;;
8088;SDS011;57635;49.194;12.104;2022-08-01T01:38:56;3.90;;;3.70;;
8088;SDS011;57635;49.194;12.104;2022-08-01T01:41:33;4.00;;;3.80;;
8088;SDS011;57635;49.194;12.104;2022-08-01T01:44:10;3.70;;;3.50;;
8088;SDS011;57635;49.194;12.104;2022-08-01T01:46:39;3.90;;;3.60;;
8088;SDS011;57635;49.194;12.104;2022-08-01T01:49:11;4.30;;;4.00;;
8088;SDS011;57635;49.194;12.104;2022-08-01T01:51:45;3.20;;;3.00;;
8088;SDS011;57635;49.194;12.104;2022-08-01T01:54:28;3.43;;;3.13;;
8088;SDS011;57635;49.194;12.104;2022-08-01T01:57:05;4.83;;;4.10;;
8088;SDS011;57635;49.194;12.104;2022-08-01T01:59:39;3.97;;;3.67;;
8088;SDS011;57635;49.194;12.104;2022-08-01T02:02:10;3.80;;;3.50;;
8088;SDS011;57635;49.194;12.104;2022-08-01T02:04:41;3.97;;;3.73;;
8088;SDS011;57635;49.194;12.104;2022-08-01T02:07:16;3.73;;;3.53;;
8088;SDS011;57635;49.194;12.104;2022-08-01T02:09:48;3.77;;;3.47;;
8088;SDS011;57635;49.194;12.104;2022-08-01T02:12:21;4.27;;;3.90;;
8088;SDS011;57635;49.194;12.104;2022-08-01T02:15:02;3.90;;;3.60;;
8088;SDS011;57635;49.194;12.104;2022-08-01T02:17:33;4.23;;;4.03;;
8088;SDS011;57635;49.194;12.104;2022-08-01T02:20:06;5.10;;;3.73;;
8088;SDS011;57635;49.194;12.104;2022-08-01T02:22:40;4.10;;;3.80;;
8088;SDS011;57635;49.194;12.104;2022-08-01T02:25:11;3.63;;;3.43;;
8088;SDS011;57635;49.194;12.104;2022-08-01T02:27:45;3.77;;;3.47;;
8088;SDS011;57635;49.194;12.104;2022-08-01T02:30:19;3.80;;;3.60;;
8088;SDS011;57635;49.194;12.104;2022-08-01T02:32:49;4.40;;;4.10;;
8088;SDS011;57635;49.194;12.104;2022-08-01T02:35:23;4.70;;;3.70;;
8088;SDS011;57635;49.194;12.104;2022-08-01T02:37:57;4.03;;;3.83;;
8088;SDS011;57635;49.194;12.104;2022-08-01T02:40:27;3.73;;;3.43;;
8088;SDS011;57635;49.194;12.104;2022-08-01T02:43:00;4.03;;;3.60;;
8088;SDS011;57635;49.194;12.104;2022-08-01T02:45:43;4.00;;;3.80;;
8088;SDS011;57635;49.194;12.104;2022-08-01T02:48:27;4.70;;;4.40;;
8088;SDS011;57635;49.194;12.104;2022-08-01T02:50:57;3.80;;;3.50;;
8088;SDS011;57635;49.194;12.104;2022-08-01T02:53:31;4.43;;;4.00;;
8088;SDS011;57635;49.194;12.104;2022-08-01T02:56:10;4.07;;;3.73;;
8088;SDS011;57635;49.194;12.104;2022-08-01T02:58:41;3.80;;;3.60;;
8088;SDS011;57635;49.194;12.104;2022-08-01T03:01:14;4.30;;;3.93;;
8088;SDS011;57635;49.194;12.104;2022-08-01T03:03:47;4.40;;;4.20;;
8088;SDS011;57635;49.194;12.104;2022-08-01T03:06:21;4.80;;;4.50;;
8088;SDS011;57635;49.194;12.104;2022-08-01T03:08:51;3.77;;;3.57;;
8088;SDS011;57635;49.194;12.104;2022-08-01T03:11:25;3.80;;;3.60;;
8088;SDS011;57635;49.194;12.104;2022-08-01T03:13:59;3.87;;;3.67;;
8088;SDS011;57635;49.194;12.104;2022-08-01T03:16:32;3.97;;;3.67;;
8088;SDS011;57635;49.194;12.104;2022-08-01T03:19:02;3.57;;;3.33;;
8088;SDS011;57635;49.194;12.104;2022-08-01T03:21:31;3.90;;;3.70;;
8088;SDS011;57635;49.194;12.104;2022-08-01T03:24:01;3.87;;;3.67;;
8088;SDS011;57635;49.194;12.104;2022-08-01T03:26:33;3.67;;;3.47;;
8088;SDS011;57635;49.194;12.104;2022-08-01T03:29:04;4.10;;;3.67;;
8088;SDS011;57635;49.194;12.104;2022-08-01T03:31:35;3.97;;;3.77;;
8088;SDS011;57635;49.194;12.104;2022-08-01T03:34:09;4.27;;;3.40;;
8088;SDS011;57635;49.194;12.104;2022-08-01T03:36:42;3.97;;;3.57;;
8088;SDS011;57635;49.194;12.104;2022-08-01T03:39:18;4.10;;;3.90;;
8088;SDS011;57635;49.194;12.104;2022-08-01T03:41:54;3.93;;;3.73;;
8088;SDS011;57635;49.194;12.104;2022-08-01T03:44:26;4.47;;;4.20;;
8088;SDS011;57635;49.194;12.104;2022-08-01T03:46:58;4.07;;;3.73;;
8088;SDS011;57635;49.194;12.104;2022-08-01T03:49:31;8.53;;;4.17;;
8088;SDS011;57635;49.194;12.104;2022-08-01T03:52:03;3.90;;;3.50;;
8088;SDS011;57635;49.194;12.104;2022-08-01T03:54:34;4.17;;;3.73;;
8088;SDS011;57635;49.194;12.104;2022-08-01T03:57:05;3.77;;;3.33;;
8088;SDS011;57635;49.194;12.104;2022-08-01T03:59:58;3.70;;;3.50;;
8088;SDS011;57635;49.194;12.104;2022-08-01T04:02:28;4.30;;;4.00;;
8088;SDS011;57635;49.194;12.104;2022-08-01T04:04:56;4.07;;;3.87;;
8088;SDS011;57635;49.194;12.104;2022-08-01T04:07:27;4.30;;;3.90;;
8088;SDS011;57635;49.194;12.104;2022-08-01T04:09:57;3.87;;;3.63;;
8088;SDS011;57635;49.194;12.104;2022-08-01T04:12:26;4.13;;;3.90;;
8088;SDS011;57635;49.194;12.104;2022-08-01T04:14:55;3.83;;;3.63;;
8088;SDS011;57635;49.194;12.104;2022-08-01T04:17:23;4.40;;;4.00;;
8088;SDS011;57635;49.194;12.104;2022-08-01T04:19:55;4.03;;;3.60;;
8088;SDS011;57635;49.194;12.104;2022-08-01T04:22:29;4.23;;;3.97;;
8088;SDS011;57635;49.194;12.104;2022-08-01T04:25:03;3.83;;;3.47;;
8088;SDS011;57635;49.194;12.104;2022-08-01T04:27:38;3.73;;;3.53;;
8088;SDS011;57635;49.194;12.104;2022-08-01T04:30:17;4.27;;;3.97;;
8088;SDS011;57635;49.194;12.104;2022-08-01T04:32:48;4.30;;;3.80;;
8088;SDS011;57635;49.194;12.104;2022-08-01T04:35:19;3.90;;;3.70;;
8088;SDS011;57635;49.194;12.104;2022-08-01T04:38:12;3.90;;;3.70;;
8088;SDS011;57635;49.194;12.104;2022-08-01T04:40:43;4.20;;;3.90;;
8088;SDS011;57635;49.194;12.104;2022-08-01T04:43:12;4.30;;;3.83;;
8088;SDS011;57635;49.194;12.104;2022-08-01T04:45:41;4.37;;;4.03;;
8088;SDS011;57635;49.194;12.104;2022-08-01T04:48:11;4.83;;;3.93;;
8088;SDS011;57635;49.194;12.104;2022-08-01T04:50:44;3.93;;;3.73;;
8088;SDS011;57635;49.194;12.104;2022-08-01T04:53:13;3.83;;;3.50;;
8088;SDS011;57635;49.194;12.104;2022-08-01T04:55:44;4.10;;;3.80;;
8088;SDS011;57635;49.194;12.104;2022-08-01T04:58:17;4.43;;;4.10;;
8088;SDS011;57635;49.194;12.104;2022-08-01T05:00:46;4.60;;;4.30;;
8088;SDS011;57635;49.194;12.104;2022-08-01T05:03:16;4.10;;;3.80;;
8088;SDS011;57635;49.194;12.104;2022-08-01T05:05:46;3.60;;;3.40;;
8088;SDS011;57635;49.194;12.104;2022-08-01T05:08:17;4.03;;;3.83;;
8088;SDS011;57635;49.194;12.104;2022-08-01T05:10:47;4.37;;;3.97;;
8088;SDS011;57635;49.194;12.104;2022-08-01T05:13:15;4.60;;;4.20;;
8088;SDS011;57635;49.194;12.104;2022-08-01T05:15:44;3.83;;;3.20;;
8088;SDS011;57635;49.194;12.104;2022-08-01T05:18:12;3.83;;;3.63;;
8088;SDS011;57635;49.194;12.104;2022-08-01T05:20:44;3.77;;;3.57;;
8088;SDS011;57635;49.194;12.104;2022-08-01T05:23:23;4.13;;;3.83;;
8088;SDS011;57635;49.194;12.104;2022-08-01T05:26:26;5.93;;;3.87;;
8088;SDS011;57635;49.194;12.104;2022-08-01T05:29:40;3.70;;;3.23;;
8088;SDS011;57635;49.194;12.104;2022-08-01T05:32:41;3.67;;;3.47;;
8088;SDS011;57635;49.194;12.104;2022-08-01T05:35:45;3.90;;;3.70;;
8088;SDS011;57635;49.194;12.104;2022-08-01T05:38:53;3.93;;;3.67;;
8088;SDS011;57635;49.194;12.104;2022-08-01T05:41:56;3.30;;;3.17;;
8088;SDS011;57635;49.194;12.104;2022-08-01T05:45:05;3.57;;;3.27;;
8088;SDS011;57635;49.194;12.104;2022-08-01T05:48:05;3.80;;;3.50;;
8088;SDS011;57635;49.194;12.104;2022-08-01T05:50:34;3.97;;;3.67;;
8088;SDS011;57635;49.194;12.104;2022-08-01T05:53:02;3.97;;;3.60;;
8088;SDS011;57635;49.194;12.104;2022-08-01T05:55:32;3.83;;;3.63;;
8088;SDS011;57635;49.194;12.104;2022-08-01T05:58:01;3.60;;;3.30;;
8088;SDS011;57635;49.194;12.104;2022-08-01T06:00:29;3.30;;;3.10;;
8088;SDS011;57635;49.194;12.104;2022-08-01T06:02:57;3.50;;;3.30;;
8088;SDS011;57635;49.194;12.104;2022-08-01T06:05:26;3.60;;;3.40;;
8088;SDS011;57635;49.194;12.104;2022-08-01T06:07:54;3.60;;;3.40;;
8088;SDS011;57635;49.194;12.104;2022-08-01T06:10:24;5.27;;;3.50;;
8088;SDS011;57635;49.194;12.104;2022-08-01T06:12:54;4.53;;;3.23;;
8088;SDS011;57635;49.194;12.104;2022-08-01T06:15:23;3.20;;;3.00;;
8088;SDS011;57635;49.194;12.104;2022-08-01T06:17:51;2.97;;;2.87;;
8088;SDS011;57635;49.194;12.104;2022-08-01T06:20:20;3.27;;;3.07;;
8088;SDS011;57635;49.194;12.104;2022-08-01T06:22:48;3.30;;;3.10;;
8088;SDS011;57635;49.194;12.104;2022-08-01T06:25:18;3.87;;;3.60;;
8088;SDS011;57635;49.194;12.104;2022-08-01T06:27:47;3.57;;;3.27;;
8088;SDS011;57635;49.194;12.104;2022-08-01T06:30:17;3.23;;;2.93;;
8088;SDS011;57635;49.194;12.104;2022-08-01T06:32:47;2.90;;;2.70;;
8088;SDS011;57635;49.194;12.104;2022-08-01T06:35:16;3.13;;;2.93;;
8088;SDS011;57635;49.194;12.104;2022-08-01T06:37:44;2.93;;;2.73;;
8088;SDS011;57635;49.194;12.104;2022-08-01T06:40:13;2.97;;;2.87;;
8088;SDS011;57635;49.194;12.104;2022-08-01T06:42:43;2.43;;;2.30;;
8088;SDS011;57635;49.194;12.104;2022-08-01T06:45:12;2.57;;;2.47;;
8088;SDS011;57635;49.194;12.104;2022-08-01T06:47:43;3.77;;;3.07;;
8088;SDS011;57635;49.194;12.104;2022-08-01T06:50:16;3.87;;;2.90;;
8088;SDS011;57635;49.194;12.104;2022-08-01T06:52:44;3.43;;;3.13;;
8088;SDS011;57635;49.194;12.104;2022-08-01T06:55:13;3.10;;;2.90;;
8088;SDS011;57635;49.194;12.104;2022-08-01T06:57:45;4.37;;;2.83;;
8088;SDS011;57635;49.194;12.104;2022-08-01T07:00:15;4.13;;;2.97;;
8088;SDS011;57635;49.194;12.104;2022-08-01T07:02:46;2.93;;;2.60;;
8088;SDS011;57635;49.194;12.104;2022-08-01T07:05:15;2.77;;;2.67;;
8088;SDS011;57635;49.194;12.104;2022-08-01T07:07:43;2.73;;;2.30;;
8088;SDS011;57635;49.194;12.104;2022-08-01T07:10:12;3.47;;;2.70;;
8088;SDS011;57635;49.194;12.104;2022-08-01T07:12:40;2.90;;;2.70;;
8088;SDS011;57635;49.194;12.104;2022-08-01T07:15:09;2.90;;;2.67;;
8088;SDS011;57635;49.194;12.104;2022-08-01T07:17:38;2.80;;;2.63;;
8088;SDS011;57635;49.194;12.104;2022-08-01T07:20:09;3.00;;;2.33;;
8088;SDS011;57635;49.194;12.104;2022-08-01T07:22:42;2.90;;;2.80;;
8088;SDS011;57635;49.194;12.104;2022-08-01T07:25:13;2.97;;;2.40;;
8088;SDS011;57635;49.194;12.104;2022-08-01T07:27:42;2.63;;;2.53;;
8088;SDS011;57635;49.194;12.104;2022-08-01T07:30:11;5.57;;;2.97;;
8088;SDS011;57635;49.194;12.104;2022-08-01T07:32:40;2.43;;;2.33;;
8088;SDS011;57635;49.194;12.104;2022-08-01T07:35:12;8.93;;;3.20;;
8088;SDS011;57635;49.194;12.104;2022-08-01T07:37:46;3.13;;;2.83;;
8088;SDS011;57635;49.194;12.104;2022-08-01T07:40:15;2.87;;;2.67;;
8088;SDS011;57635;49.194;12.104;2022-08-01T07:42:45;2.30;;;2.20;;
8088;SDS011;57635;49.194;12.104;2022-08-01T07:45:14;3.13;;;2.83;;
8088;SDS011;57635;49.194;12.104;2022-08-01T07:47:42;2.97;;;2.63;;
8088;SDS011;57635;49.194;12.104;2022-08-01T07:50:13;2.83;;;2.60;;
8088;SDS011;57635;49.194;12.104;2022-08-01T07:52:41;2.70;;;2.50;;
8088;SDS011;57635;49.194;12.104;2022-08-01T07:55:11;2.80;;;2.33;;
8088;SDS011;57635;49.194;12.104;2022-08-01T07:57:42;5.40;;;2.57;;
8088;SDS011;57635;49.194;12.104;2022-08-01T08:00:11;4.37;;;2.67;;
8088;SDS011;57635;49.194;12.104;2022-08-01T08:02:40;2.73;;;2.60;;
8088;SDS011;57635;49.194;12.104;2022-08-01T08:05:09;43.43;;;7.60;;
8088;SDS011;57635;49.194;12.104;2022-08-01T08:07:40;18.70;;;3.90;;
8088;SDS011;57635;49.194;12.104;2022-08-01T08:10:08;7.20;;;3.20;;
8088;SDS011;57635;49.194;12.104;2022-08-01T08:12:37;32.37;;;6.80;;
8088;SDS011;57635;49.194;12.104;2022-08-01T08:15:06;15.13;;;4.10;;
8088;SDS011;57635;49.194;12.104;2022-08-01T08:17:35;30.37;;;5.43;;
8088;SDS011;57635;49.194;12.104;2022-08-01T08:20:04;3.97;;;2.30;;
8088;SDS011;57635;49.194;12.104;2022-08-01T08:22:35;6.40;;;2.23;;
8088;SDS011;57635;49.194;12.104;2022-08-01T08:25:06;2.00;;;1.87;;
8088;SDS011;57635;49.194;12.104;2022-08-01T08:27:37;2.50;;;2.30;;
8088;SDS011;57635;49.194;12.104;2022-08-01T08:30:06;2.47;;;2.13;;
8088;SDS011;57635;49.194;12.104;2022-08-01T08:32:35;4.60;;;2.17;;
8088;SDS011;57635;49.194;12.104;2022-08-01T08:35:04;2.27;;;2.17;;
8088;SDS011;57635;49.194;12.104;2022-08-01T08:37:37;1.53;;;1.43;;
8088;SDS011;57635;49.194;12.104;2022-08-01T08:40:14;4.97;;;2.00;;
8088;SDS011;57635;49.194;12.104;2022-08-01T08:42:44;1.87;;;1.63;;
8088;SDS011;57635;49.194;12.104;2022-08-01T08:45:12;1.93;;;1.83;;
8088;SDS011;57635;49.194;12.104;2022-08-01T08:47:41;1.70;;;1.60;;
8088;SDS011;57635;49.194;12.104;2022-08-01T08:50:10;2.33;;;2.23;;
8088;SDS011;57635;49.194;12.104;2022-08-01T08:52:38;1.40;;;1.40;;
8088;SDS011;57635;49.194;12.104;2022-08-01T08:55:08;1.83;;;1.73;;
8088;SDS011;57635;49.194;12.104;2022-08-01T08:57:40;2.63;;;2.20;;
8088;SDS011;57635;49.194;12.104;2022-08-01T09:00:10;2.67;;;1.83;;
8088;SDS011;57635;49.194;12.104;2022-08-01T09:02:41;1.80;;;1.70;;
8088;SDS011;57635;49.194;12.104;2022-08-01T09:05:10;4.33;;;1.33;;
8088;SDS011;57635;49.194;12.104;2022-08-01T09:07:44;1.77;;;1.63;;
8088;SDS011;57635;49.194;12.104;2022-08-01T09:10:13;4.83;;;1.80;;
8088;SDS011;57635;49.194;12.104;2022-08-01T09:15:38;1.33;;;1.10;;
8088;SDS011;57635;49.194;12.104;2022-08-01T09:18:07;1.07;;;1.00;;
8088;SDS011;57635;49.194;12.104;2022-08-01T09:20:36;2.33;;;1.20;;
8088;SDS011;57635;49.194;12.104;2022-08-01T09:23:04;1.77;;;1.07;;
8088;SDS011;57635;49.194;12.104;2022-08-01T09:28:28;1.67;;;1.13;;
8088;SDS011;57635;49.194;12.104;2022-08-01T09:30:57;3.23;;;1.77;;
8088;SDS011;57635;49.194;12.104;2022-08-01T09:33:26;1.23;;;1.23;;
8088;SDS011;57635;49.194;12.104;2022-08-01T09:36:17;0.90;;;0.90;;
8088;SDS011;57635;49.194;12.104;2022-08-01T09:38:46;6.27;;;1.63;;
8088;SDS011;57635;49.194;12.104;2022-08-01T09:41:16;1.17;;;1.17;;
8088;SDS011;57635;49.194;12.104;2022-08-01T09:43:51;0.97;;;0.97;;
8088;SDS011;57635;49.194;12.104;2022-08-01T09:46:19;1.80;;;1.40;;
8088;SDS011;57635;49.194;12.104;2022-08-01T09:48:54;2.53;;;2.13;;
8088;SDS011;57635;49.194;12.104;2022-08-01T09:51:28;2.07;;;1.30;;
8088;SDS011;57635;49.194;12.104;2022-08-01T09:54:27;1.73;;;1.20;;
8088;SDS011;57635;49.194;12.104;2022-08-01T09:57:07;2.97;;;1.60;;
8088;SDS011;57635;49.194;12.104;2022-08-01T09:59:38;1.30;;;1.20;;
8088;SDS011;57635;49.194;12.104;2022-08-01T10:02:28;1.70;;;1.60;;
8088;SDS011;57635;49.194;12.104;2022-08-01T10:04:59;4.00;;;1.70;;
8088;SDS011;57635;49.194;12.104;2022-08-01T10:07:34;1.50;;;1.40;;
8088;SDS011;57635;49.194;12.104;2022-08-01T10:10:09;2.43;;;2.33;;
8088;SDS011;57635;49.194;12.104;2022-08-01T10:12:40;1.57;;;1.47;;
8088;SDS011;57635;49.194;12.104;2022-08-01T10:15:12;1.57;;;1.47;;
8088;SDS011;57635;49.194;12.104;2022-08-01T10:17:45;1.67;;;1.13;;
8088;SDS011;57635;49.194;12.104;2022-08-01T10:20:24;1.50;;;1.10;;
8088;SDS011;57635;49.194;12.104;2022-08-01T10:22:58;1.20;;;1.10;;
8088;SDS011;57635;49.194;12.104;2022-08-01T10:25:34;5.37;;;1.50;;
8088;SDS011;57635;49.194;12.104;2022-08-01T10:28:10;2.37;;;1.10;;
8088;SDS011;57635;49.194;12.104;2022-08-01T10:30:48;3.50;;;1.20;;
8088;SDS011;57635;49.194;12.104;2022-08-01T10:33:18;2.80;;;1.50;;
8088;SDS011;57635;49.194;12.104;2022-08-01T10:36:09;1.00;;;1.00;;
8088;SDS011;57635;49.194;12.104;2022-08-01T10:38:38;1.03;;;1.03;;
8088;SDS011;57635;49.194;12.104;2022-08-01T10:41:07;1.60;;;1.50;;
8088;SDS011;57635;49.194;12.104;2022-08-01T10:43:36;2.00;;;1.50;;
8088;SDS011;57635;49.194;12.104;2022-08-01T10:46:12;1.47;;;1.20;;
8088;SDS011;57635;49.194;12.104;2022-08-01T10:48:42;1.10;;;1.10;;
8088;SDS011;57635;49.194;12.104;2022-08-01T10:51:17;1.57;;;1.47;;
8088;SDS011;57635;49.194;12.104;2022-08-01T10:54:08;1.60;;;1.50;;
8088;SDS011;57635;49.194;12.104;2022-08-01T10:56:39;1.70;;;1.60;;
8088;SDS011;57635;49.194;12.104;2022-08-01T10:59:08;1.53;;;1.43;;
8088;SDS011;57635;49.194;12.104;2022-08-01T11:01:38;1.97;;;1.87;;
8088;SDS011;57635;49.194;12.104;2022-08-01T11:04:11;2.57;;;2.03;;
8088;SDS011;57635;49.194;12.104;2022-08-01T11:06:54;2.40;;;1.53;;
8088;SDS011;57635;49.194;12.104;2022-08-01T11:09:37;1.50;;;1.40;;
8088;SDS011;57635;49.194;12.104;2022-08-01T11:12:08;1.20;;;1.20;;
8088;SDS011;57635;49.194;12.104;2022-08-01T11:15:16;2.77;;;1.30;;
8088;SDS011;57635;49.194;12.104;2022-08-01T11:17:58;2.30;;;1.57;;
8088;SDS011;57635;49.194;12.104;2022-08-01T11:20:27;1.50;;;1.40;;
8088;SDS011;57635;49.194;12.104;2022-08-01T11:26:08;1.90;;;1.40;;
8088;SDS011;57635;49.194;12.104;2022-08-01T11:28:39;1.00;;;1.00;;
8088;SDS011;57635;49.194;12.104;2022-08-01T11:31:28;1.33;;;1.33;;
8088;SDS011;57635;49.194;12.104;2022-08-01T11:34:05;1.20;;;1.20;;
8088;SDS011;57635;49.194;12.104;2022-08-01T11:36:33;1.40;;;1.30;;
8088;SDS011;57635;49.194;12.104;2022-08-01T11:39:22;1.27;;;1.20;;
8088;SDS011;57635;49.194;12.104;2022-08-01T11:41:51;0.97;;;0.97;;
8088;SDS011;57635;49.194;12.104;2022-08-01T11:44:22;1.10;;;1.10;;
8088;SDS011;57635;49.194;12.104;2022-08-01T11:46:53;1.30;;;1.20;;
8088;SDS011;57635;49.194;12.104;2022-08-01T11:49:29;3.60;;;1.67;;
8088;SDS011;57635;49.194;12.104;2022-08-01T11:52:15;1.30;;;1.20;;
8088;SDS011;57635;49.194;12.104;2022-08-01T11:54:46;1.40;;;1.30;;
8088;SDS011;57635;49.194;12.104;2022-08-01T11:57:17;1.83;;;1.60;;
8088;SDS011;57635;49.194;12.104;2022-08-01T11:59:49;1.40;;;1.40;;
8088;SDS011;57635;49.194;12.104;2022-08-01T12:02:30;1.57;;;1.47;;
8088;SDS011;57635;49.194;12.104;2022-08-01T12:05:03;1.27;;;1.27;;
8088;SDS011;57635;49.194;12.104;2022-08-01T12:07:37;1.07;;;1.07;;
8088;SDS011;57635;49.194;12.104;2022-08-01T12:10:07;1.17;;;1.17;;
8088;SDS011;57635;49.194;12.104;2022-08-01T12:12:41;6.77;;;1.77;;
8088;SDS011;57635;49.194;12.104;2022-08-01T12:15:11;2.80;;;1.40;;
8088;SDS011;57635;49.194;12.104;2022-08-01T12:17:41;1.10;;;1.10;;
8088;SDS011;57635;49.194;12.104;2022-08-01T12:20:25;2.10;;;1.00;;
8088;SDS011;57635;49.194;12.104;2022-08-01T12:22:58;4.70;;;1.67;;
8088;SDS011;57635;49.194;12.104;2022-08-01T12:25:27;5.07;;;1.60;;
8088;SDS011;57635;49.194;12.104;2022-08-01T12:27:59;1.40;;;1.30;;
8088;SDS011;57635;49.194;12.104;2022-08-01T12:30:29;2.30;;;1.87;;
8088;SDS011;57635;49.194;12.104;2022-08-01T12:33:02;6.33;;;1.50;;
8088;SDS011;57635;49.194;12.104;2022-08-01T12:35:33;4.43;;;1.67;;
8088;SDS011;57635;49.194;12.104;2022-08-01T12:38:04;1.30;;;1.20;;
8088;SDS011;57635;49.194;12.104;2022-08-01T12:40:34;1.17;;;1.13;;
8088;SDS011;57635;49.194;12.104;2022-08-01T12:43:13;1.47;;;1.37;;
8088;SDS011;57635;49.194;12.104;2022-08-01T12:45:55;1.07;;;1.07;;
8088;SDS011;57635;49.194;12.104;2022-08-01T12:48:25;1.13;;;1.03;;
8088;SDS011;57635;49.194;12.104;2022-08-01T12:50:55;3.70;;;1.50;;
8088;SDS011;57635;49.194;12.104;2022-08-01T12:53:27;1.40;;;1.30;;
8088;SDS011;57635;49.194;12.104;2022-08-01T12:56:07;1.83;;;1.40;;
8088;SDS011;57635;49.194;12.104;2022-08-01T12:58:36;1.37;;;1.37;;
8088;SDS011;57635;49.194;12.104;2022-08-01T13:01:05;1.20;;;1.20;;
8088;SDS011;57635;49.194;12.104;2022-08-01T13:03:34;1.17;;;1.03;;
8088;SDS011;57635;49.194;12.104;2022-08-01T13:06:10;1.13;;;1.13;;
8088;SDS011;57635;49.194;12.104;2022-08-01T13:08:42;3.33;;;1.10;;
8088;SDS011;57635;49.194;12.104;2022-08-01T13:11:11;1.07;;;1.07;;
8088;SDS011;57635;49.194;12.104;2022-08-01T13:13:43;0.80;;;0.80;;
8088;SDS011;57635;49.194;12.104;2022-08-01T13:16:14;1.13;;;0.90;;
8088;SDS011;57635;49.194;12.104;2022-08-01T13:18:59;1.50;;;1.40;;
8088;SDS011;57635;49.194;12.104;2022-08-01T13:21:30;1.97;;;1.33;;
8088;SDS011;57635;49.194;12.104;2022-08-01T13:24:22;1.47;;;1.37;;
8088;SDS011;57635;49.194;12.104;2022-08-01T13:26:53;2.67;;;1.00;;
8088;SDS011;57635;49.194;12.104;2022-08-01T13:29:31;0.90;;;0.90;;
8088;SDS011;57635;49.194;12.104;2022-08-01T13:32:01;2.23;;;1.73;;
8088;SDS011;57635;49.194;12.104;2022-08-01T13:35:00;2.00;;;1.33;;
8088;SDS011;57635;49.194;12.104;2022-08-01T13:37:30;1.10;;;1.10;;
8088;SDS011;57635;49.194;12.104;2022-08-01T13:39:58;1.10;;;1.10;;
8088;SDS011;57635;49.194;12.104;2022-08-01T13:42:27;1.40;;;1.07;;
8088;SDS011;57635;49.194;12.104;2022-08-01T13:44:57;1.13;;;1.13;;
8088;SDS011;57635;49.194;12.104;2022-08-01T13:47:25;1.13;;;1.03;;
8088;SDS011;57635;49.194;12.104;2022-08-01T13:49:57;0.93;;;0.87;;
8088;SDS011;57635;49.194;12.104;2022-08-01T13:52:30;0.97;;;0.97;;
8088;SDS011;57635;49.194;12.104;2022-08-01T13:54:59;1.20;;;1.20;;
8088;SDS011;57635;49.194;12.104;2022-08-01T13:57:36;1.13;;;1.10;;
8088;SDS011;57635;49.194;12.104;2022-08-01T14:00:06;0.97;;;0.80;;
8088;SDS011;57635;49.194;12.104;2022-08-01T14:02:36;1.17;;;0.93;;
8088;SDS011;57635;49.194;12.104;2022-08-01T14:05:05;1.00;;;1.00;;
8088;SDS011;57635;49.194;12.104;2022-08-01T14:07:36;1.20;;;1.10;;
8088;SDS011;57635;49.194;12.104;2022-08-01T14:10:07;0.60;;;0.60;;
8088;SDS011;57635;49.194;12.104;2022-08-01T14:12:45;1.07;;;1.07;;
8088;SDS011;57635;49.194;12.104;2022-08-01T14:15:14;1.27;;;0.90;;
8088;SDS011;57635;49.194;12.104;2022-08-01T14:18:02;1.70;;;1.07;;
8088;SDS011;57635;49.194;12.104;2022-08-01T14:20:31;4.60;;;1.30;;
8088;SDS011;57635;49.194;12.104;2022-08-01T14:23:01;1.73;;;0.83;;
8088;SDS011;57635;49.194;12.104;2022-08-01T14:25:33;1.97;;;1.10;;
8088;SDS011;57635;49.194;12.104;2022-08-01T14:28:22;2.03;;;1.93;;
8088;SDS011;57635;49.194;12.104;2022-08-01T14:30:51;3.00;;;1.50;;
8088;SDS011;57635;49.194;12.104;2022-08-01T14:33:21;2.23;;;1.13;;
8088;SDS011;57635;49.194;12.104;2022-08-01T14:35:50;1.73;;;1.37;;
8088;SDS011;57635;49.194;12.104;2022-08-01T14:38:39;2.17;;;1.63;;
8088;SDS011;57635;49.194;12.104;2022-08-01T14:41:11;1.23;;;1.13;;
8088;SDS011;57635;49.194;12.104;2022-08-01T14:43:40;1.17;;;1.17;;
8088;SDS011;57635;49.194;12.104;2022-08-01T14:46:09;2.20;;;1.20;;
8088;SDS011;57635;49.194;12.104;2022-08-01T14:48:44;0.80;;;0.80;;
8088;SDS011;57635;49.194;12.104;2022-08-01T14:51:28;1.60;;;1.50;;
8088;SDS011;57635;49.194;12.104;2022-08-01T14:54:13;1.50;;;1.10;;
8088;SDS011;57635;49.194;12.104;2022-08-01T14:56:54;1.20;;;1.20;;
8088;SDS011;57635;49.194;12.104;2022-08-01T14:59:23;1.20;;;0.90;;
8088;SDS011;57635;49.194;12.104;2022-08-01T15:01:52;3.53;;;1.37;;
8088;SDS011;57635;49.194;12.104;2022-08-01T15:04:21;2.10;;;1.20;;
8088;SDS011;57635;49.194;12.104;2022-08-01T15:06:49;2.20;;;1.17;;
8088;SDS011;57635;49.194;12.104;2022-08-01T15:09:19;0.80;;;0.80;;
8088;SDS011;57635;49.194;12.104;2022-08-01T15:11:47;1.13;;;1.07;;
8088;SDS011;57635;49.194;12.104;2022-08-01T15:14:15;1.80;;;1.37;;
8088;SDS011;57635;49.194;12.104;2022-08-01T15:17:00;1.30;;;0.83;;
8088;SDS011;57635;49.194;12.104;2022-08-01T15:19:28;1.10;;;1.10;;
8088;SDS011;57635;49.194;12.104;2022-08-01T15:21:57;1.13;;;0.80;;
8088;SDS011;57635;49.194;12.104;2022-08-01T15:24:35;4.03;;;1.30;;
8088;SDS011;57635;49.194;12.104;2022-08-01T15:27:14;1.30;;;1.30;;
8088;SDS011;57635;49.194;12.104;2022-08-01T15:30:18;1.00;;;1.00;;
8088;SDS011;57635;49.194;12.104;2022-08-01T15:32:52;0.97;;;0.90;;
8088;SDS011;57635;49.194;12.104;2022-08-01T15:35:24;0.93;;;0.93;;
8088;SDS011;57635;49.194;12.104;2022-08-01T15:37:52;1.83;;;0.93;;
8088;SDS011;57635;49.194;12.104;2022-08-01T15:40:22;1.83;;;1.20;;
8088;SDS011;57635;49.194;12.104;2022-08-01T15:42:56;1.07;;;1.00;;
8088;SDS011;57635;49.194;12.104;2022-08-01T15:45:46;1.27;;;1.20;;